Time;durP1;ratioP1;P1;durP2;ratioP2;P2;SDS_P1;SDS_P2;PMS_P1;PMS_P2;Temp;Humidity;BMP_temperature;BMP_pressure;BME280_temperature;BME280_humidity;BME280_pressure;Samples;Min_cycle;Max_cycle;Signal;HPM_P1;HPM_P2
2024/03/25 00:02:00;;;;;;;15.07;4.90;;;;;;;4.95;87.39;97537.31;4995296;28;20078;-84
2024/03/25 00:04:26;;;;;;;10.95;4.20;;;;;;;4.75;87.62;97547.59;4996471;28;20091;-84
2024/03/25 00:06:52;;;;;;;16.63;4.55;;;;;;;4.85;87.79;97550.38;4996996;28;20036;-84
2024/03/25 00:09:17;;;;;;;10.70;3.88;;;;;;;4.71;87.97;97527.19;4999287;28;20041;-85
2024/03/25 00:11:43;;;;;;;11.23;3.92;;;;;;;5.01;87.85;97551.38;4964905;28;20317;-84
2024/03/25 00:14:09;;;;;;;11.18;4.45;;;;;;;4.51;86.85;97477.50;5000503;28;20026;-85
2024/03/25 00:16:34;;;;;;;16.38;4.93;;;;;;;4.69;87.09;97508.13;4998817;28;20481;-85
2024/03/25 00:19:01;;;;;;;15.52;4.43;;;;;;;4.73;88.00;97551.53;4992520;28;20521;-84
2024/03/25 00:21:26;;;;;;;6.72;3.25;;;;;;;4.72;87.78;97555.22;4995701;28;20557;-85
2024/03/25 00:23:52;;;;;;;8.05;3.53;;;;;;;4.96;87.76;97575.09;4996510;28;20081;-84
2024/03/25 00:26:17;;;;;;;14.15;3.72;;;;;;;4.96;87.68;97573.25;4998797;28;20036;-84
2024/03/25 00:28:43;;;;;;;12.02;4.80;;;;;;;4.76;88.03;97529.91;5000947;28;20076;-84
2024/03/25 00:31:09;;;;;;;11.98;4.40;;;;;;;4.94;87.22;97571.91;4967540;28;20036;-85
2024/03/25 00:33:34;;;;;;;9.23;3.92;;;;;;;4.73;88.53;97557.63;4997649;28;20378;-85
2024/03/25 00:36:00;;;;;;;12.40;3.63;;;;;;;4.98;88.84;97580.97;5001509;28;20478;-84
2024/03/25 00:38:25;;;;;;;11.40;3.90;;;;;;;5.00;88.37;97592.09;5002455;28;20037;-85
2024/03/25 00:40:50;;;;;;;10.70;5.28;;;;;;;4.72;88.38;97556.00;5003519;28;20037;-84
2024/03/25 00:43:16;;;;;;;10.70;3.70;;;;;;;4.56;87.24;97504.00;4971361;28;20067;-86
2024/03/25 00:45:41;;;;;;;11.65;3.80;;;;;;;4.86;87.56;97559.91;5020936;28;20037;-85
2024/03/25 00:48:07;;;;;;;9.27;3.72;;;;;;;4.85;87.35;97531.09;5020799;28;20022;-85
2024/03/25 00:50:33;;;;;;;9.82;3.58;;;;;;;5.13;86.98;97589.13;5019432;28;20478;-86
2024/03/25 00:52:58;;;;;;;17.10;4.47;;;;;;;4.88;86.78;97557.03;4997852;28;20029;-84
2024/03/25 00:55:24;;;;;;;9.07;4.03;;;;;;;5.07;87.59;97593.50;4967297;28;20033;-85
2024/03/25 00:57:50;;;;;;;10.02;4.07;;;;;;;4.81;87.96;97561.66;4998524;28;20095;-86
2024/03/25 01:00:16;;;;;;;9.43;4.22;;;;;;;4.95;87.61;97582.25;4983393;28;20097;-85
2024/03/25 01:02:42;;;;;;;6.90;3.63;;;;;;;4.79;87.39;97561.13;4982467;28;20612;-85
2024/03/25 01:05:08;;;;;;;12.52;3.92;;;;;;;5.11;87.65;97599.13;4982600;28;20030;-85
2024/03/25 01:07:34;;;;;;;11.55;4.18;;;;;;;4.96;86.91;97581.19;4978112;28;20034;-85
2024/03/25 01:09:59;;;;;;;8.48;3.83;;;;;;;5.05;86.69;97595.59;4963780;28;20386;-86
2024/03/25 01:12:25;;;;;;;8.70;3.88;;;;;;;5.04;86.88;97593.22;4994837;28;20038;-85
2024/03/25 01:14:51;;;;;;;7.03;3.35;;;;;;;4.22;87.14;97484.72;5011231;28;20034;-85
2024/03/25 01:17:17;;;;;;;11.00;4.38;;;;;;;5.00;87.06;97597.41;4992518;28;20038;-84
2024/03/25 01:19:42;;;;;;;10.25;3.20;;;;;;;4.56;86.24;97510.06;4979119;28;20063;-84
2024/03/25 01:22:08;;;;;;;14.00;4.43;;;;;;;4.97;87.19;97600.50;4995924;28;20166;-85
2024/03/25 01:24:34;;;;;;;11.30;3.58;;;;;;;4.49;86.72;97525.31;4995928;28;20545;-85
2024/03/25 01:27:00;;;;;;;12.15;4.90;;;;;;;4.97;86.79;97606.59;5011243;28;20026;-85
2024/03/25 01:29:25;;;;;;;8.45;3.78;;;;;;;4.92;86.53;97588.03;4996474;28;20088;-85
2024/03/25 01:31:51;;;;;;;14.95;3.92;;;;;;;4.98;86.60;97610.06;5010949;28;20072;-85
2024/03/25 01:34:16;;;;;;;11.90;4.78;;;;;;;4.67;87.07;97563.88;4994741;28;20704;-86
2024/03/25 01:36:42;;;;;;;17.58;4.60;;;;;;;4.65;86.09;97550.09;4985975;28;20029;-85
2024/03/25 01:39:08;;;;;;;10.65;3.92;;;;;;;4.49;86.98;97540.34;5024004;28;20026;-85
2024/03/25 01:41:33;;;;;;;15.57;3.72;;;;;;;4.92;86.15;97589.84;4985936;28;20033;-86
2024/03/25 01:43:59;;;;;;;14.48;4.20;;;;;;;4.94;87.43;97606.28;4970891;28;20041;-86
2024/03/25 01:46:25;;;;;;;6.95;3.55;;;;;;;4.85;86.53;97613.03;4998145;28;20018;-85
2024/03/25 01:48:52;;;;;;;17.30;4.13;;;;;;;4.11;86.45;97496.19;5016314;28;20026;-85
2024/03/25 01:51:19;;;;;;;14.98;3.33;;;;;;;4.88;86.63;97612.53;5016487;28;20425;-85
2024/03/25 01:53:46;;;;;;;14.82;3.88;;;;;;;4.85;86.78;97613.81;5020334;28;20034;-84
2024/03/25 01:56:13;;;;;;;21.35;4.57;;;;;;;4.87;86.54;97608.31;4992111;28;20374;-84
2024/03/25 01:58:39;;;;;;;15.85;5.13;;;;;;;4.87;85.86;97608.31;5015982;28;20038;-84
2024/03/25 02:01:05;;;;;;;12.02;3.60;;;;;;;4.18;86.65;97528.50;4998565;28;20037;-84
2024/03/25 02:03:31;;;;;;;10.98;3.05;;;;;;;4.86;85.95;97599.56;4982154;28;20045;-86
2024/03/25 02:06:00;;;;;;;13.65;4.63;;;;;;;4.61;86.12;97575.38;4999021;28;20481;-85
2024/03/25 02:08:27;;;;;;;9.32;3.63;;;;;;;4.61;85.72;97579.91;4996503;28;20018;-85
2024/03/25 02:10:54;;;;;;;14.43;4.00;;;;;;;4.70;86.85;97605.66;5011822;28;21478;-85
2024/03/25 02:13:21;;;;;;;11.07;4.00;;;;;;;4.53;85.67;97554.66;4978037;28;20027;-86
2024/03/25 02:15:46;;;;;;;12.75;3.80;;;;;;;4.57;85.75;97603.34;5013540;28;20038;-84
2024/03/25 02:18:12;;;;;;;9.00;4.38;;;;;;;4.81;86.16;97611.91;5006496;28;20032;-84
2024/03/25 02:20:37;;;;;;;9.60;3.28;;;;;;;4.84;86.32;97614.06;4979707;28;20034;-85
2024/03/25 02:23:03;;;;;;;12.80;3.45;;;;;;;4.24;85.90;97511.69;4984692;28;20489;-85
2024/03/25 02:25:32;;;;;;;14.93;5.07;;;;;;;4.70;85.95;97597.72;4983827;28;20124;-86
2024/03/25 02:27:58;;;;;;;13.18;4.25;;;;;;;4.57;85.67;97569.00;4994024;28;20494;-86
2024/03/25 02:30:23;;;;;;;7.70;3.67;;;;;;;4.44;86.46;97591.25;4982680;28;20025;-86
2024/03/25 02:32:48;;;;;;;10.15;3.53;;;;;;;4.48;86.31;97587.09;4980874;28;20049;-85
2024/03/25 02:35:16;;;;;;;11.80;4.03;;;;;;;3.98;86.25;97520.25;4991109;28;20038;-86
2024/03/25 02:37:42;;;;;;;14.73;4.65;;;;;;;4.51;85.99;97591.09;4999718;28;20064;-86
2024/03/25 02:40:09;;;;;;;14.95;4.88;;;;;;;4.50;85.68;97594.75;5005750;28;20140;-85
2024/03/25 02:42:36;;;;;;;13.93;4.50;;;;;;;4.72;86.07;97610.72;4963336;28;20034;-86
2024/03/25 02:45:02;;;;;;;10.50;3.55;;;;;;;4.75;86.01;97623.44;5012284;28;20079;-85
2024/03/25 02:47:27;;;;;;;13.60;4.85;;;;;;;4.67;86.43;97631.78;4995502;28;20018;-86
2024/03/25 02:49:53;;;;;;;7.93;3.58;;;;;;;4.33;86.02;97573.63;5010169;28;20121;-85
2024/03/25 02:52:19;;;;;;;12.75;4.50;;;;;;;4.63;86.12;97622.72;4978346;28;20026;-86
2024/03/25 02:54:44;;;;;;;15.60;4.95;;;;;;;4.44;86.83;97630.06;5010396;28;20034;-86
2024/03/25 02:57:10;;;;;;;13.45;3.97;;;;;;;4.59;86.28;97632.97;4993612;28;20036;-85
2024/03/25 02:59:35;;;;;;;10.35;4.10;;;;;;;3.95;86.94;97539.22;4977777;28;20564;-84
2024/03/25 03:02:00;;;;;;;9.93;3.65;;;;;;;4.04;86.45;97539.63;4993829;28;20686;-86
2024/03/25 03:04:26;;;;;;;18.05;4.72;;;;;;;4.25;87.77;97640.06;4977335;28;20030;-85
2024/03/25 03:06:51;;;;;;;11.70;3.22;;;;;;;4.66;86.22;97638.09;4994554;28;20064;-84
2024/03/25 03:09:16;;;;;;;19.88;5.10;;;;;;;4.73;86.31;97651.94;4981256;28;20544;-85
2024/03/25 03:11:42;;;;;;;18.75;5.22;;;;;;;4.65;86.57;97633.88;5014077;28;20057;-85
2024/03/25 03:14:07;;;;;;;12.82;4.65;;;;;;;4.80;86.21;97649.97;4981023;28;20029;-85
2024/03/25 03:16:33;;;;;;;10.82;4.18;;;;;;;4.50;86.28;97611.44;4995160;28;20044;-85
2024/03/25 03:18:58;;;;;;;14.73;4.68;;;;;;;4.33;87.76;97602.69;4962423;28;20417;-86
2024/03/25 03:21:27;;;;;;;10.20;5.10;;;;;;;4.58;87.36;97647.22;4999607;28;20097;-87
2024/03/25 03:23:52;;;;;;;14.27;3.70;;;;;;;4.41;87.43;97620.78;4992336;28;20065;-86
2024/03/25 03:26:18;;;;;;;15.73;6.10;;;;;;;4.58;87.98;97671.00;4958979;28;20030;-87
2024/03/25 03:28:43;;;;;;;10.73;3.75;;;;;;;4.59;87.88;97663.91;4965149;28;20026;-86
2024/03/25 03:31:09;;;;;;;9.77;3.42;;;;;;;4.60;87.65;97676.03;4966004;28;20030;-86
2024/03/25 03:33:36;;;;;;;5.57;3.05;;;;;;;4.23;88.59;97660.63;4980164;28;20030;-86
2024/03/25 03:36:04;;;;;;;12.43;3.60;;;;;;;4.59;87.67;97691.09;4965218;28;20937;-86
2024/03/25 03:38:30;;;;;;;11.40;3.47;;;;;;;4.54;88.22;97693.66;4994418;28;20050;-87
2024/03/25 03:41:04;;;;;;;10.77;2.97;;;;;;;4.28;87.84;97681.06;4989852;28;20069;-86
2024/03/25 03:43:30;;;;;;;8.82;3.40;;;;;;;4.41;88.16;97678.91;4992885;28;20289;-86
2024/03/25 03:45:55;;;;;;;5.97;2.40;;;;;;;4.22;87.53;97647.66;4974018;28;20033;-86
2024/03/25 03:48:20;;;;;;;6.15;2.75;;;;;;;3.92;86.66;97608.31;4970702;28;20080;-85
2024/03/25 03:50:46;;;;;;;8.40;2.85;;;;;;;4.10;88.28;97639.00;4997954;28;20482;-85
2024/03/25 03:53:12;;;;;;;8.52;3.00;;;;;;;4.07;88.15;97653.47;4971826;28;20056;-85
2024/03/25 03:55:37;;;;;;;8.45;3.00;;;;;;;4.19;87.67;97666.63;4997787;28;20030;-85
2024/03/25 03:58:03;;;;;;;15.13;3.78;;;;;;;3.90;87.45;97634.13;4999703;28;20386;-84
2024/03/25 04:00:29;;;;;;;13.73;3.45;;;;;;;4.46;87.34;97700.13;4984277;28;20033;-84
2024/03/25 04:02:54;;;;;;;9.02;2.60;;;;;;;3.73;87.84;97598.97;4994129;28;20402;-85
2024/03/25 04:05:20;;;;;;;3.50;2.42;;;;;;;4.45;87.92;97698.53;4984536;28;20030;-86
2024/03/25 04:07:45;;;;;;;11.52;3.53;;;;;;;3.80;87.30;97607.53;5001861;28;20022;-85
2024/03/25 04:10:11;;;;;;;5.85;2.05;;;;;;;3.88;87.88;97614.28;5017816;28;20087;-86
2024/03/25 04:12:37;;;;;;;7.50;2.60;;;;;;;4.38;86.99;97692.59;4987341;28;20401;-85
2024/03/25 04:15:03;;;;;;;7.97;2.88;;;;;;;4.32;86.75;97677.69;5002029;28;20036;-86
2024/03/25 04:17:29;;;;;;;8.50;2.58;;;;;;;4.52;86.62;97698.41;5003912;28;20579;-85
2024/03/25 04:19:54;;;;;;;10.43;2.92;;;;;;;4.35;86.60;97686.97;4982708;28;20030;-86
2024/03/25 04:22:19;;;;;;;6.65;2.88;;;;;;;4.45;87.39;97700.38;4985341;28;20142;-85
2024/03/25 04:24:45;;;;;;;4.30;2.53;;;;;;;4.24;87.00;97650.84;4985236;28;20045;-86
2024/03/25 04:27:10;;;;;;;5.50;3.08;;;;;;;4.39;86.88;97674.91;4985988;28;20022;-85
2024/03/25 04:29:36;;;;;;;8.85;3.00;;;;;;;4.43;86.67;97690.03;5002604;28;20045;-85
2024/03/25 04:32:02;;;;;;;7.90;3.13;;;;;;;4.46;87.41;97707.25;4985120;28;20099;-85
2024/03/25 04:34:28;;;;;;;5.65;3.20;;;;;;;4.53;87.33;97710.53;5000144;28;20379;-85
2024/03/25 04:36:53;;;;;;;7.60;3.65;;;;;;;4.46;87.26;97678.19;4985072;28;20034;-85
2024/03/25 04:39:19;;;;;;;8.48;3.38;;;;;;;4.46;87.32;97692.19;4975356;28;20029;-86
2024/03/25 04:41:44;;;;;;;9.27;3.25;;;;;;;4.67;87.10;97708.41;5008536;28;20069;-87
2024/03/25 04:44:10;;;;;;;6.70;3.10;;;;;;;4.61;86.64;97693.53;5006787;28;20121;-86
2024/03/25 04:46:35;;;;;;;13.93;4.00;;;;;;;4.62;86.71;97688.00;5004284;28;20040;-85
2024/03/25 04:49:00;;;;;;;16.40;4.90;;;;;;;4.65;88.14;97718.41;4988494;28;20040;-86
2024/03/25 04:51:26;;;;;;;12.20;3.72;;;;;;;4.54;86.08;97673.31;5022578;28;20482;-86
2024/03/25 04:53:52;;;;;;;18.15;4.55;;;;;;;4.45;87.78;97714.38;4970199;28;20397;-86
2024/03/25 04:56:18;;;;;;;12.45;3.88;;;;;;;4.87;87.03;97735.97;4984406;28;20057;-87
2024/03/25 04:58:44;;;;;;;10.15;3.72;;;;;;;4.40;86.54;97668.56;5003686;28;20033;-87
2024/03/25 05:01:09;;;;;;;8.43;4.28;;;;;;;4.26;87.53;97691.06;4980356;28;20041;-87
2024/03/25 05:03:48;;;;;;;21.13;4.70;;;;;;;4.02;90.46;97724.63;4968961;28;20085;-87
2024/03/25 05:06:14;;;;;;;15.80;5.10;;;;;;;4.73;88.16;97742.63;5017668;28;20034;-86
2024/03/25 05:08:43;;;;;;;16.48;6.20;;;;;;;4.05;90.30;97703.06;5005003;28;20069;-87
2024/03/25 05:11:34;;;;;;;9.25;3.95;;;;;;;4.26;90.53;97746.50;5014381;28;20413;-86
2024/03/25 05:14:24;;;;;;;13.38;3.90;;;;;;;4.72;88.61;97741.00;5022200;28;20037;-87
2024/03/25 05:16:53;;;;;;;11.93;4.38;;;;;;;4.39;88.58;97752.28;5009148;28;20030;-87
2024/03/25 05:19:20;;;;;;;16.23;4.53;;;;;;;4.47;89.57;97749.28;4991385;28;20057;-87
2024/03/25 05:21:54;;;;;;;14.68;4.38;;;;;;;4.34;88.70;97746.94;5020070;28;20044;-87
2024/03/25 05:24:41;;;;;;;11.75;4.60;;;;;;;3.69;92.21;97753.53;5023985;28;20029;-85
2024/03/25 05:27:20;;;;;;;10.90;4.47;;;;;;;4.00;94.03;97779.50;5024734;28;20071;-86
2024/03/25 05:29:46;;;;;;;17.10;5.32;;;;;;;4.82;90.58;97783.50;5011555;28;20436;-87
2024/03/25 05:32:12;;;;;;;12.23;4.82;;;;;;;4.29;89.02;97724.91;4995276;28;20034;-85
2024/03/25 05:34:38;;;;;;;17.95;5.03;;;;;;;4.52;89.51;97801.44;4962180;28;20072;-85
2024/03/25 05:37:04;;;;;;;13.63;4.47;;;;;;;4.46;90.50;97765.38;4962351;28;20038;-85
2024/03/25 05:39:29;;;;;;;15.70;4.10;;;;;;;4.61;89.89;97791.28;4977655;28;20038;-85
2024/03/25 05:41:55;;;;;;;7.55;3.80;;;;;;;4.24;89.38;97767.84;4979056;28;20077;-85
2024/03/25 05:44:20;;;;;;;11.52;3.97;;;;;;;4.38;90.49;97797.44;4976867;28;20484;-85
2024/03/25 05:46:46;;;;;;;10.18;3.28;;;;;;;4.35;90.14;97803.19;4993231;28;20042;-86
2024/03/25 05:49:11;;;;;;;5.32;3.03;;;;;;;4.22;88.80;97808.72;4975807;28;20180;-86
2024/03/25 05:51:36;;;;;;;8.60;3.53;;;;;;;4.30;89.29;97793.31;4986545;28;20033;-85
2024/03/25 05:54:02;;;;;;;7.15;3.08;;;;;;;4.61;88.23;97791.28;4996965;28;20040;-85
2024/03/25 05:56:30;;;;;;;11.73;3.58;;;;;;;4.48;88.14;97777.31;4996190;28;20026;-86
2024/03/25 05:58:58;;;;;;;11.52;3.30;;;;;;;4.49;88.42;97802.69;5011732;28;20026;-86
2024/03/25 06:01:27;;;;;;;8.02;3.20;;;;;;;4.11;88.33;97807.72;4996543;28;20461;-86
2024/03/25 06:03:53;;;;;;;8.05;3.45;;;;;;;4.20;88.68;97811.63;5008379;28;20038;-86
2024/03/25 06:06:18;;;;;;;12.75;3.38;;;;;;;4.16;89.79;97810.47;5002800;28;20026;-86
2024/03/25 06:08:43;;;;;;;6.40;2.75;;;;;;;3.94;89.70;97777.81;4959747;28;20026;-86
2024/03/25 06:11:09;;;;;;;10.48;3.22;;;;;;;3.97;88.58;97737.75;4964686;28;20030;-86
2024/03/25 06:13:34;;;;;;;15.27;3.47;;;;;;;4.68;87.56;97816.53;4997699;28;20088;-88
2024/03/25 06:16:00;;;;;;;9.05;3.40;;;;;;;4.15;87.89;97732.28;5006263;28;20149;-88
2024/03/25 06:18:25;;;;;;;9.27;3.83;;;;;;;4.34;87.84;97759.34;5009342;28;20026;-87
2024/03/25 06:20:51;;;;;;;6.88;3.67;;;;;;;4.26;87.83;97734.09;4990483;28;20034;-87
2024/03/25 06:23:26;;;;;;;9.32;4.38;;;;;;;4.32;89.28;97832.72;4990193;28;20066;-88
2024/03/25 06:25:53;;;;;;;11.05;4.10;;;;;;;4.70;87.80;97811.78;4986609;28;20848;-89
2024/03/25 06:28:19;;;;;;;10.55;4.38;;;;;;;4.65;87.65;97830.22;5004025;28;20104;-87
2024/03/25 06:36:17;;;;;;;16.88;6.28;;;;;;;3.75;89.94;97774.50;4993643;28;20044;-88
2024/03/25 06:38:42;;;;;;;21.42;6.07;;;;;;;3.86;91.20;97791.38;4994932;28;20022;-87
2024/03/25 06:41:08;;;;;;;15.05;5.38;;;;;;;4.22;90.73;97814.00;4981237;28;20493;-87
2024/03/25 06:43:33;;;;;;;16.75;6.47;;;;;;;4.36;90.93;97839.94;4987388;28;20084;-88
2024/03/25 06:45:58;;;;;;;21.83;5.68;;;;;;;4.07;88.90;97722.09;4991286;28;20037;-87
2024/03/25 06:48:24;;;;;;;19.23;6.78;;;;;;;4.97;89.26;97830.53;4995250;28;20616;-86
2024/03/25 06:50:56;;;;;;;17.15;6.88;;;;;;;4.46;88.06;97754.78;5008988;28;20603;-89
2024/03/25 06:53:22;;;;;;;17.30;6.15;;;;;;;5.05;87.85;97836.25;4983499;28;20034;-88
2024/03/25 06:55:58;;;;;;;21.98;9.50;;;;;;;4.64;87.84;97788.16;4997210;28;20041;-88
2024/03/25 06:58:25;;;;;;;20.45;6.22;;;;;;;5.19;87.25;97826.16;4995281;28;20033;-88
2024/03/25 07:00:52;;;;;;;16.27;6.47;;;;;;;5.17;86.95;97841.47;4991413;28;20037;-88
2024/03/25 07:03:18;;;;;;;22.80;8.10;;;;;;;4.79;87.00;97783.13;4989865;28;20490;-88
2024/03/25 07:05:48;;;;;;;21.80;6.97;;;;;;;4.69;87.42;97769.75;4988647;28;20493;-87
2024/03/25 07:08:14;;;;;;;27.67;7.45;;;;;;;4.99;87.02;97802.00;4984453;28;20022;-88
2024/03/25 07:10:43;;;;;;;22.00;7.97;;;;;;;5.15;85.96;97831.13;4985980;28;20030;-87
2024/03/25 07:13:08;;;;;;;19.58;7.63;;;;;;;5.27;86.63;97860.16;4991970;28;20456;-87
2024/03/25 07:15:34;;;;;;;20.23;7.88;;;;;;;5.17;86.20;97844.94;5010796;28;20105;-88
2024/03/25 07:17:59;;;;;;;22.55;8.60;;;;;;;4.33;88.08;97784.13;4988897;28;20038;-87
2024/03/25 07:20:25;;;;;;;17.75;6.72;;;;;;;5.26;87.00;97877.09;4990575;28;20025;-87
2024/03/25 07:22:54;;;;;;;19.08;6.80;;;;;;;5.21;86.61;97869.03;5004681;28;20513;-88
2024/03/25 07:25:20;;;;;;;16.92;6.47;;;;;;;5.00;86.80;97853.88;4990441;28;20076;-89
2024/03/25 07:27:45;;;;;;;24.02;8.65;;;;;;;5.27;86.56;97874.19;4970075;28;20022;-87
2024/03/25 07:30:10;;;;;;;12.20;5.88;;;;;;;4.85;87.19;97803.38;4992577;28;20030;-88
2024/03/25 07:32:36;;;;;;;16.23;6.75;;;;;;;5.26;86.98;97843.47;4986029;28;20053;-89
2024/03/25 07:35:02;;;;;;;17.33;6.03;;;;;;;5.09;85.93;97828.63;4974581;28;20497;-89
2024/03/25 07:37:27;;;;;;;16.02;6.15;;;;;;;5.61;85.59;97879.53;4986546;28;20040;-88
2024/03/25 07:39:52;;;;;;;16.50;6.80;;;;;;;5.62;85.01;97883.75;4988351;28;20568;-88
2024/03/25 07:42:19;;;;;;;15.35;6.53;;;;;;;5.52;86.99;97888.91;4995657;28;20420;-89
2024/03/25 07:44:44;;;;;;;22.15;8.05;;;;;;;4.65;86.49;97802.97;4991471;28;20049;-88
2024/03/25 07:47:10;;;;;;;18.65;6.25;;;;;;;5.60;86.54;97886.66;4973322;28;20526;-89
2024/03/25 07:49:35;;;;;;;18.88;6.47;;;;;;;4.94;87.05;97801.91;4993454;28;20113;-89
2024/03/25 07:52:01;;;;;;;17.20;7.03;;;;;;;5.54;87.32;97884.16;4982039;28;20030;-88
2024/03/25 07:54:26;;;;;;;16.77;6.97;;;;;;;4.90;87.45;97790.22;4996170;28;20516;-88
2024/03/25 07:56:53;;;;;;;20.10;8.13;;;;;;;5.29;88.25;97908.34;4983071;28;20034;-88
2024/03/25 07:59:18;;;;;;;14.93;6.20;;;;;;;5.32;87.91;97894.63;5011790;28;20736;-89
2024/03/25 08:01:44;;;;;;;16.38;6.38;;;;;;;5.65;86.95;97894.69;4997608;28;20037;-89
2024/03/25 08:04:09;;;;;;;17.30;7.05;;;;;;;5.70;86.87;97896.63;5012732;28;20026;-89
2024/03/25 08:06:35;;;;;;;16.90;6.32;;;;;;;5.73;85.62;97888.97;4996621;28;20057;-89
2024/03/25 08:09:00;;;;;;;20.98;7.63;;;;;;;5.46;86.27;97893.28;4997338;28;20033;-89
2024/03/25 08:11:26;;;;;;;14.15;6.60;;;;;;;5.41;87.06;97874.69;4981620;28;20258;-89
2024/03/25 08:13:52;;;;;;;18.00;6.55;;;;;;;5.48;87.32;97888.59;4997448;28;20036;-90
2024/03/25 08:16:17;;;;;;;17.63;6.07;;;;;;;5.13;86.48;97812.03;4997231;28;20038;-89
2024/03/25 08:18:42;;;;;;;18.30;6.80;;;;;;;5.51;86.41;97887.28;4997832;28;20034;-89
2024/03/25 08:21:08;;;;;;;17.90;5.50;;;;;;;5.63;87.33;97886.19;5014931;28;20034;-89
2024/03/25 08:23:33;;;;;;;21.70;7.20;;;;;;;5.39;87.58;97887.38;4997114;28;20022;-89
2024/03/25 08:26:00;;;;;;;15.88;5.88;;;;;;;5.68;86.21;97877.53;4982725;28;20444;-89
2024/03/25 08:28:26;;;;;;;18.10;6.40;;;;;;;6.06;84.82;97888.19;4997652;28;20022;-89
2024/03/25 08:30:51;;;;;;;16.55;5.90;;;;;;;5.47;84.63;97823.44;4965310;28;20042;-89
2024/03/25 08:33:16;;;;;;;15.57;5.95;;;;;;;5.68;85.69;97899.47;4981092;28;20535;-90
2024/03/25 08:35:42;;;;;;;17.30;6.97;;;;;;;5.76;85.67;97901.75;4996845;28;20371;-89
2024/03/25 08:38:08;;;;;;;16.35;6.30;;;;;;;6.15;84.82;97905.28;4996831;28;20034;-90
2024/03/25 08:40:33;;;;;;;14.18;5.75;;;;;;;5.69;84.98;97821.69;4997297;28;20088;-87
2024/03/25 08:42:59;;;;;;;11.82;5.05;;;;;;;6.12;84.05;97889.06;4998569;28;20033;-87
2024/03/25 08:45:24;;;;;;;15.60;5.57;;;;;;;6.07;84.07;97885.28;4981975;28;20033;-87
2024/03/25 08:47:50;;;;;;;24.67;5.88;;;;;;;5.98;85.71;97915.88;5015830;28;20667;-86
2024/03/25 08:50:15;;;;;;;10.57;6.35;;;;;;;6.13;84.21;97891.47;4980751;28;20498;-87
2024/03/25 08:52:41;;;;;;;15.57;6.72;;;;;;;5.66;86.28;97829.28;4981093;28;20034;-87
2024/03/25 08:55:06;;;;;;;22.77;6.13;;;;;;;6.04;84.22;97904.34;4965361;28;20073;-87
2024/03/25 08:57:32;;;;;;;14.10;5.28;;;;;;;6.22;83.18;97881.28;4964777;28;20033;-87
2024/03/25 08:59:57;;;;;;;10.43;5.00;;;;;;;6.26;83.88;97893.78;4980884;28;20038;-87
2024/03/25 09:02:22;;;;;;;9.48;4.05;;;;;;;6.46;82.96;97915.28;5015003;28;20029;-87
2024/03/25 09:04:48;;;;;;;13.43;5.10;;;;;;;6.43;82.74;97926.34;4965043;28;20032;-85
2024/03/25 09:07:16;;;;;;;12.90;4.85;;;;;;;6.61;82.84;97922.63;4997248;28;20490;-87
2024/03/25 09:12:26;;;;;;;14.23;4.82;;;;;;;6.20;83.47;97894.78;4999738;28;20092;-86
2024/03/25 09:14:51;;;;;;;16.60;4.93;;;;;;;6.32;83.09;97921.94;4964639;28;20030;-87
2024/03/25 09:17:17;;;;;;;12.55;4.90;;;;;;;5.98;83.03;97886.75;5014080;28;20030;-87
2024/03/25 09:19:42;;;;;;;13.40;4.55;;;;;;;6.49;83.38;97925.38;4996932;28;20521;-87
2024/03/25 09:22:08;;;;;;;11.40;4.97;;;;;;;6.23;82.77;97901.41;4996373;28;20113;-87
2024/03/25 09:24:33;;;;;;;11.73;4.47;;;;;;;5.93;82.97;97839.03;4980142;28;20025;-87
2024/03/25 09:26:58;;;;;;;11.45;4.47;;;;;;;6.41;82.16;97923.16;4996017;28;20485;-87
2024/03/25 09:29:24;;;;;;;15.27;5.47;;;;;;;6.54;82.06;97922.78;4980331;28;20022;-87
2024/03/25 09:31:49;;;;;;;11.75;4.50;;;;;;;6.87;82.25;97934.34;4980066;28;20115;-87
2024/03/25 09:34:14;;;;;;;12.68;4.68;;;;;;;6.47;81.43;97892.19;4995911;28;20029;-87
2024/03/25 09:36:40;;;;;;;12.18;4.88;;;;;;;6.31;82.02;97866.56;4963512;28;20033;-87
2024/03/25 09:39:06;;;;;;;11.13;4.38;;;;;;;6.48;82.04;97909.72;4979975;28;20026;-86
2024/03/25 09:41:36;;;;;;;14.55;4.78;;;;;;;6.13;81.26;97835.03;4995885;28;20022;-87
2024/03/25 09:44:05;;;;;;;18.20;5.10;;;;;;;6.54;81.29;97908.72;4980466;28;20033;-87
2024/03/25 09:46:30;;;;;;;13.25;5.18;;;;;;;6.10;80.59;97865.47;4979578;28;20022;-87
2024/03/25 09:48:56;;;;;;;15.80;4.75;;;;;;;6.52;81.03;97921.44;4979524;28;20029;-87
2024/03/25 09:51:21;;;;;;;14.90;4.20;;;;;;;6.34;79.54;97917.22;4995842;28;20026;-87
2024/03/25 09:53:47;;;;;;;14.68;4.88;;;;;;;6.00;81.39;97817.66;4995951;28;20034;-87
2024/03/25 09:56:16;;;;;;;15.50;4.80;;;;;;;6.77;80.94;97887.31;4995595;28;20030;-87
2024/03/25 09:58:43;;;;;;;12.82;3.80;;;;;;;6.73;80.76;97902.88;4979814;28;20057;-87
2024/03/25 10:01:09;;;;;;;16.48;4.90;;;;;;;6.63;81.04;97907.25;5013596;28;20022;-87
2024/03/25 10:03:34;;;;;;;11.63;4.32;;;;;;;6.87;80.94;97927.19;4995740;28;20032;-87
2024/03/25 10:05:59;;;;;;;14.15;4.20;;;;;;;6.09;79.29;97841.88;4979402;28;20057;-87
2024/03/25 10:08:30;;;;;;;17.15;5.18;;;;;;;6.87;80.42;97916.56;4995641;28;20030;-87
2024/03/25 10:10:55;;;;;;;12.13;3.97;;;;;;;6.80;79.38;97897.38;4996139;28;20476;-87
2024/03/25 10:13:21;;;;;;;11.40;5.25;;;;;;;6.85;78.70;97921.31;4979291;28;20029;-87
2024/03/25 10:15:48;;;;;;;17.13;5.03;;;;;;;6.46;78.00;97917.13;4979956;28;20061;-87
2024/03/25 10:18:16;;;;;;;14.98;4.95;;;;;;;6.58;78.93;97885.97;5013857;28;20026;-87
2024/03/25 10:20:49;;;;;;;16.42;4.88;;;;;;;7.19;79.75;97908.69;4996600;28;20053;-87
2024/03/25 10:23:14;;;;;;;13.60;4.70;;;;;;;7.23;79.14;97910.59;4996271;28;20482;-87
2024/03/25 10:25:40;;;;;;;15.32;5.07;;;;;;;7.04;80.21;97906.69;4996546;28;20026;-87
2024/03/25 10:28:06;;;;;;;16.73;4.47;;;;;;;7.13;79.57;97885.81;4981235;28;20045;-87
2024/03/25 10:30:31;;;;;;;17.38;5.88;;;;;;;7.18;78.96;97881.38;4981475;28;20041;-87
2024/03/25 10:33:07;;;;;;;13.50;4.30;;;;;;;7.43;78.81;97905.50;4997648;28;20044;-87
2024/03/25 10:35:34;;;;;;;15.65;4.47;;;;;;;7.44;77.93;97906.31;4996811;28;20379;-87
2024/03/25 10:38:10;;;;;;;16.52;4.97;;;;;;;7.40;78.22;97906.00;4996803;28;20034;-87
2024/03/25 10:40:37;;;;;;;14.35;5.07;;;;;;;7.42;77.74;97927.81;4997906;28;20037;-87
2024/03/25 10:43:06;;;;;;;13.90;4.20;;;;;;;7.43;78.48;97910.81;5015458;28;20057;-87
2024/03/25 10:45:34;;;;;;;14.32;4.85;;;;;;;7.55;77.37;97900.84;4997304;28;20025;-87
2024/03/25 10:48:31;;;;;;;15.00;4.28;;;;;;;7.20;77.29;97828.06;4996980;28;20397;-87
2024/03/25 10:51:02;;;;;;;9.00;4.20;;;;;;;7.67;77.26;97902.53;4990517;28;20456;-87
2024/03/25 10:53:28;;;;;;;9.30;4.88;;;;;;;7.71;77.61;97896.44;4982325;28;20481;-86
2024/03/25 10:55:55;;;;;;;18.38;5.07;;;;;;;7.70;76.77;97891.41;4981644;28;20026;-88
2024/03/25 10:58:24;;;;;;;12.57;4.00;;;;;;;7.20;76.93;97822.75;4997717;28;20121;-87
2024/03/25 11:00:51;;;;;;;14.70;4.80;;;;;;;7.72;76.50;97891.94;5015026;28;20022;-87
2024/03/25 11:03:17;;;;;;;19.60;7.45;;;;;;;7.87;75.01;97886.75;4997779;28;20057;-87
2024/03/25 11:05:45;;;;;;;13.40;5.55;;;;;;;7.45;75.16;97810.47;4981547;28;20030;-88
2024/03/25 11:08:15;;;;;;;12.88;4.53;;;;;;;7.89;75.04;97868.69;4997457;28;20698;-87
2024/03/25 11:10:41;;;;;;;10.73;3.83;;;;;;;7.89;75.38;97889.97;5015275;28;20033;-87
2024/03/25 11:13:14;;;;;;;18.35;4.20;;;;;;;7.65;75.96;97847.00;4998986;28;20180;-87
2024/03/25 11:15:44;;;;;;;11.07;4.30;;;;;;;7.97;74.32;97881.53;5002409;28;20094;-88
2024/03/25 11:18:14;;;;;;;15.38;4.35;;;;;;;8.07;74.13;97876.28;5019480;28;20646;-88
2024/03/25 11:20:40;;;;;;;14.85;5.20;;;;;;;7.99;73.66;97852.84;4986365;28;20036;-87
2024/03/25 11:23:10;;;;;;;16.35;4.15;;;;;;;8.11;74.28;97872.84;4987114;28;20029;-87
2024/03/25 11:25:36;;;;;;;9.18;4.18;;;;;;;7.96;73.53;97858.66;5020672;28;20029;-87
2024/03/25 11:28:02;;;;;;;6.47;3.40;;;;;;;7.85;74.36;97822.47;5003439;28;20096;-87
2024/03/25 11:30:29;;;;;;;14.60;5.22;;;;;;;7.63;71.82;97779.28;5002216;28;20045;-87
2024/03/25 11:32:55;;;;;;;6.97;3.60;;;;;;;7.97;73.48;97871.69;5020427;28;20018;-87
2024/03/25 11:35:21;;;;;;;9.95;3.85;;;;;;;7.91;72.97;97846.16;5020532;28;20045;-87
2024/03/25 11:37:47;;;;;;;10.60;3.78;;;;;;;8.20;72.42;97866.00;5020332;28;20125;-87
2024/03/25 11:40:14;;;;;;;6.75;3.35;;;;;;;7.94;71.61;97816.41;5002246;28;20040;-87